createdAt,value
2023-02-25T00:02:15.561Z,21.98
2023-02-25T00:04:42.066Z,31.38
2023-02-25T00:07:09.029Z,31.48
2023-02-25T00:09:35.808Z,16.20
2023-02-25T00:12:02.140Z,25.20
2023-02-25T00:14:28.586Z,18.90
2023-02-25T00:16:55.998Z,21.52
2023-02-25T00:19:24.641Z,15.00
2023-02-25T00:21:51.033Z,15.75
2023-02-25T00:24:17.682Z,23.33
2023-02-25T00:26:44.656Z,28.90
2023-02-25T00:29:13.546Z,26.42
2023-02-25T00:31:40.102Z,25.73
2023-02-25T00:34:06.578Z,19.20
2023-02-25T00:36:33.039Z,24.60
2023-02-25T00:38:59.448Z,19.52
2023-02-25T00:41:28.855Z,18.48
2023-02-25T00:44:04.563Z,15.65
2023-02-25T00:46:31.586Z,23.00
2023-02-25T00:48:58.881Z,22.58
2023-02-25T00:51:28.766Z,22.23
2023-02-25T00:53:56.366Z,19.98
2023-02-25T00:56:24.940Z,17.83
2023-02-25T00:58:52.293Z,18.00
2023-02-25T01:01:29.011Z,21.08
2023-02-25T01:03:56.961Z,23.83
2023-02-25T01:06:25.688Z,17.05
2023-02-25T01:08:52.254Z,16.25
2023-02-25T01:11:24.417Z,20.65
2023-02-25T01:13:50.850Z,23.40
2023-02-25T01:16:24.429Z,22.02
2023-02-25T01:18:56.694Z,21.55
2023-02-25T01:21:26.204Z,17.70
2023-02-25T01:24:02.809Z,23.45
2023-02-25T01:26:31.867Z,20.80
2023-02-25T01:28:58.659Z,25.40
2023-02-25T01:31:29.860Z,20.63
2023-02-25T01:34:00.725Z,25.52
2023-02-25T01:36:29.100Z,20.85
2023-02-25T01:38:57.489Z,23.98
2023-02-25T01:41:25.402Z,27.75
2023-02-25T01:44:12.809Z,16.88
2023-02-25T01:46:41.801Z,24.45
2023-02-25T01:49:20.428Z,20.92
2023-02-25T01:51:51.504Z,30.13
2023-02-25T01:54:19.461Z,15.20
2023-02-25T01:56:51.245Z,24.73
2023-02-25T01:59:21.297Z,22.38
2023-02-25T02:01:47.732Z,23.73
2023-02-25T02:04:17.112Z,25.02
2023-02-25T02:06:46.033Z,18.38
2023-02-25T02:09:21.195Z,13.38
2023-02-25T02:11:47.622Z,17.88
2023-02-25T02:14:22.815Z,21.73
2023-02-25T02:16:55.213Z,27.20
2023-02-25T02:19:55.863Z,23.42
2023-02-25T02:22:55.898Z,25.88
2023-02-25T02:25:34.605Z,20.25
2023-02-25T02:28:11.586Z,15.57
2023-02-25T02:31:15.792Z,22.40
2023-02-25T02:33:52.381Z,21.67
2023-02-25T02:36:49.133Z,32.17
2023-02-25T02:39:32.813Z,27.40
2023-02-25T02:42:11.208Z,21.98
2023-02-25T02:44:54.322Z,24.95
2023-02-25T02:47:30.324Z,25.42
2023-02-25T02:50:33.802Z,27.63
2023-02-25T02:53:06.361Z,26.55
2023-02-25T02:55:37.717Z,17.65
2023-02-25T02:58:16.164Z,22.25
2023-02-25T03:00:47.568Z,17.27
2023-02-25T03:03:22.320Z,20.65
2023-02-25T03:05:53.551Z,17.55
2023-02-25T03:08:26.790Z,24.48
2023-02-25T03:10:53.277Z,24.23
2023-02-25T03:13:21.261Z,24.42
2023-02-25T03:15:49.858Z,27.52
2023-02-25T03:18:24.305Z,19.92
2023-02-25T03:20:54.773Z,23.08
2023-02-25T03:23:25.519Z,23.00
2023-02-25T03:26:14.088Z,28.23
2023-02-25T03:28:43.564Z,19.50
2023-02-25T03:31:16.372Z,17.60
2023-02-25T03:33:48.530Z,25.88
2023-02-25T03:36:42.602Z,25.00
2023-02-25T03:39:33.172Z,26.00
2023-02-25T03:42:04.604Z,21.80
2023-02-25T03:44:41.602Z,26.63
2023-02-25T03:47:10.772Z,30.30
2023-02-25T03:49:55.189Z,18.95
2023-02-25T03:52:24.963Z,24.13
2023-02-25T03:54:57.218Z,21.45
2023-02-25T03:57:27.330Z,24.65
2023-02-25T03:59:57.594Z,18.15
2023-02-25T04:02:32.807Z,21.63
2023-02-25T04:04:59.400Z,19.45
2023-02-25T04:07:25.872Z,24.10
2023-02-25T04:09:52.235Z,19.33
2023-02-25T04:12:18.533Z,28.00
2023-02-25T04:14:44.849Z,26.77
2023-02-25T04:17:11.656Z,27.17
2023-02-25T04:19:37.992Z,31.10
2023-02-25T04:22:07.743Z,20.48
2023-02-25T04:24:34.155Z,24.73
2023-02-25T04:27:01.602Z,13.30
2023-02-25T04:29:29.287Z,19.55
2023-02-25T04:31:57.128Z,13.43
2023-02-25T04:34:24.768Z,18.65
2023-02-25T04:36:51.138Z,18.60
2023-02-25T04:39:18.083Z,16.75
2023-02-25T04:41:44.850Z,23.27
2023-02-25T04:44:11.369Z,19.35
2023-02-25T04:46:41.017Z,22.15
2023-02-25T04:49:09.377Z,20.90
2023-02-25T04:51:38.168Z,16.73
2023-02-25T04:54:05.568Z,20.83
2023-02-25T04:56:31.899Z,13.45
2023-02-25T04:58:58.239Z,22.77
2023-02-25T05:01:24.685Z,20.63
2023-02-25T05:03:56.638Z,14.02
2023-02-25T05:06:25.286Z,23.40
2023-02-25T05:08:51.798Z,22.10
2023-02-25T05:11:19.418Z,18.40
2023-02-25T05:13:46.577Z,19.33
2023-02-25T05:16:18.544Z,26.65
2023-02-25T05:18:46.476Z,15.18
2023-02-25T05:21:16.026Z,27.42
2023-02-25T05:23:44.243Z,19.20
2023-02-25T05:26:12.119Z,22.17
2023-02-25T05:28:38.471Z,26.90
2023-02-25T05:31:10.717Z,19.90
2023-02-25T05:33:38.810Z,19.98
2023-02-25T05:36:09.923Z,22.35
2023-02-25T05:38:36.697Z,29.95
2023-02-25T05:41:05.840Z,19.35
2023-02-25T05:43:32.285Z,18.42
2023-02-25T05:46:00.374Z,23.52
2023-02-25T05:48:27.450Z,25.35
2023-02-25T05:51:04.058Z,35.15
2023-02-25T05:53:30.750Z,22.40
2023-02-25T05:55:57.095Z,27.85
2023-02-25T05:58:23.511Z,25.60
2023-02-25T06:00:50.396Z,24.38
2023-02-25T06:03:17.201Z,18.63
2023-02-25T06:05:44.606Z,18.55
2023-02-25T06:08:12.278Z,27.45
2023-02-25T06:10:39.587Z,19.15
2023-02-25T06:13:07.218Z,24.48
2023-02-25T06:15:33.750Z,23.15
2023-02-25T06:18:00.103Z,13.50
2023-02-25T06:20:27.836Z,23.65
2023-02-25T06:22:54.452Z,20.10
2023-02-25T06:25:20.886Z,22.15
2023-02-25T06:27:47.297Z,19.90
2023-02-25T06:30:14.163Z,21.52
2023-02-25T06:32:40.523Z,24.33
2023-02-25T06:35:07.789Z,20.27
2023-02-25T06:37:34.531Z,19.48
2023-02-25T06:40:00.845Z,17.08
2023-02-25T06:42:27.131Z,16.80
2023-02-25T06:44:53.414Z,19.42
2023-02-25T06:47:22.107Z,20.77
2023-02-25T06:49:48.441Z,19.80
2023-02-25T06:52:15.020Z,23.33
2023-02-25T06:54:41.408Z,17.45
2023-02-25T06:57:07.708Z,19.33
2023-02-25T06:59:35.404Z,22.27
2023-02-25T07:02:01.943Z,19.42
2023-02-25T07:04:28.278Z,19.88
2023-02-25T07:06:54.608Z,18.38
2023-02-25T07:09:20.900Z,17.13
2023-02-25T07:11:47.270Z,23.65
2023-02-25T07:14:16.150Z,22.85
2023-02-25T07:16:42.452Z,25.67
2023-02-25T07:19:08.763Z,33.55
2023-02-25T07:21:35.154Z,30.83
2023-02-25T07:24:01.515Z,31.80
2023-02-25T07:26:28.405Z,24.08
2023-02-25T07:28:56.892Z,29.75
2023-02-25T07:31:24.519Z,35.35
2023-02-25T07:33:51.639Z,27.67
2023-02-25T07:36:18.530Z,27.25
2023-02-25T07:38:46.726Z,26.42
2023-02-25T07:41:16.621Z,24.23
2023-02-25T07:43:43.230Z,34.05
2023-02-25T07:46:10.867Z,26.98
2023-02-25T07:48:37.284Z,24.40
2023-02-25T07:51:09.316Z,32.03
2023-02-25T07:53:35.854Z,23.20
2023-02-25T07:56:04.948Z,27.90
2023-02-25T07:58:32.261Z,26.77
2023-02-25T08:00:59.901Z,26.88
2023-02-25T08:03:26.382Z,63.88
2023-02-25T08:05:54.106Z,57.83
2023-02-25T08:08:21.659Z,89.82
2023-02-25T08:10:47.998Z,67.75
2023-02-25T08:13:14.788Z,123.18
2023-02-25T08:15:42.756Z,33.33
2023-02-25T08:18:09.603Z,93.85
2023-02-25T08:20:36.334Z,66.50
2023-02-25T08:23:04.067Z,44.35
2023-02-25T08:25:30.886Z,51.90
2023-02-25T08:27:58.120Z,45.55
2023-02-25T08:30:24.460Z,36.03
2023-02-25T08:32:50.848Z,34.88
2023-02-25T08:35:17.252Z,37.95
2023-02-25T08:37:45.170Z,38.55
2023-02-25T08:40:13.485Z,33.25
2023-02-25T08:42:39.873Z,31.52
2023-02-25T08:45:06.577Z,34.25
2023-02-25T08:47:33.440Z,39.95
2023-02-25T08:50:00.616Z,29.40
2023-02-25T08:52:33.461Z,29.20
2023-02-25T08:55:01.828Z,31.38
2023-02-25T08:57:29.426Z,29.70
2023-02-25T08:59:56.521Z,29.33
2023-02-25T09:02:24.159Z,33.78
2023-02-25T09:04:50.676Z,25.23
2023-02-25T09:07:17.019Z,36.33
2023-02-25T09:09:43.401Z,24.05
2023-02-25T09:12:10.336Z,32.58
2023-02-25T09:14:37.175Z,27.20
2023-02-25T09:17:05.066Z,19.17
2023-02-25T09:19:32.648Z,20.38
2023-02-25T09:21:59.344Z,20.90
2023-02-25T09:24:27.556Z,22.17
2023-02-25T09:26:53.865Z,19.60
2023-02-25T09:29:20.188Z,21.50
2023-02-25T09:31:46.641Z,25.63
2023-02-25T09:34:13.802Z,21.33
2023-02-25T09:36:40.151Z,20.40
2023-02-25T09:39:10.100Z,21.65
2023-02-25T09:41:44.111Z,24.83
2023-02-25T09:44:17.195Z,22.52
2023-02-25T09:47:42.593Z,27.05
2023-02-25T09:50:21.325Z,23.15
2023-02-25T09:53:07.436Z,29.70
2023-02-25T09:55:37.874Z,19.88
2023-02-25T09:58:13.566Z,27.52
2023-02-25T10:00:45.649Z,25.50
2023-02-25T10:03:25.905Z,23.15
2023-02-25T10:06:14.824Z,14.93
2023-02-25T10:09:13.377Z,24.75
2023-02-25T10:11:58.525Z,20.33
2023-02-25T10:14:48.425Z,31.63
2023-02-25T10:17:30.020Z,22.27
2023-02-25T10:20:35.017Z,25.42
2023-02-25T10:23:39.181Z,27.38
2023-02-25T10:26:17.797Z,40.33
2023-02-25T10:28:48.274Z,21.27
2023-02-25T10:31:18.593Z,32.25
2023-02-25T10:33:48.049Z,37.15
2023-02-25T10:36:19.614Z,44.08
2023-02-25T10:38:49.819Z,31.30
2023-02-25T10:41:16.497Z,26.13
2023-02-25T10:43:44.895Z,41.75
2023-02-25T10:46:18.568Z,23.98
2023-02-25T10:48:53.117Z,23.73
2023-02-25T10:51:19.487Z,32.47
2023-02-25T10:53:57.939Z,28.95
2023-02-25T10:56:30.990Z,15.85
2023-02-25T10:59:31.518Z,27.05
2023-02-25T11:01:59.677Z,15.90
2023-02-25T11:04:34.811Z,15.95
2023-02-25T11:07:01.171Z,20.20
2023-02-25T11:09:33.544Z,23.58
2023-02-25T11:12:01.386Z,6.00
2023-02-25T11:14:30.180Z,7.30
2023-02-25T11:17:17.197Z,2.17
2023-02-25T11:20:02.628Z,3.65
2023-02-25T11:22:42.986Z,3.42
2023-02-25T11:25:35.562Z,7.37
2023-02-25T11:28:02.418Z,16.55
2023-02-25T11:30:38.127Z,12.07
2023-02-25T11:33:29.605Z,8.60
2023-02-25T11:38:28.741Z,4.38
2023-02-25T11:43:24.580Z,3.92
2023-02-25T11:46:11.983Z,3.63
2023-02-25T11:48:51.191Z,4.43
2023-02-25T11:51:54.967Z,6.28
2023-02-25T11:54:41.450Z,4.75
2023-02-25T11:57:14.689Z,6.15
2023-02-25T11:59:58.031Z,4.45
2023-02-25T12:02:30.385Z,5.07
2023-02-25T12:05:24.126Z,4.80
2023-02-25T12:08:21.353Z,2.75
2023-02-25T12:11:19.811Z,18.88
2023-02-25T12:14:18.879Z,14.20
2023-02-25T12:17:25.892Z,30.02
2023-02-25T12:20:30.009Z,11.57
2023-02-25T12:23:39.449Z,5.93
2023-02-25T12:26:19.670Z,14.60
2023-02-25T12:29:03.405Z,13.77
2023-02-25T12:31:52.507Z,9.25
2023-02-25T12:34:33.998Z,7.68
2023-02-25T12:37:16.458Z,38.70
2023-02-25T12:40:13.585Z,11.82
2023-02-25T12:43:17.099Z,13.32
2023-02-25T12:46:21.184Z,5.60
2023-02-25T12:49:05.885Z,5.63
2023-02-25T12:51:47.855Z,8.07
2023-02-25T12:54:29.398Z,7.93
2023-02-25T12:57:17.106Z,4.70
2023-02-25T12:59:49.395Z,8.70
2023-02-25T13:02:48.070Z,5.55
2023-02-25T13:05:45.991Z,3.85
2023-02-25T13:08:27.626Z,4.30
2023-02-25T13:11:02.658Z,5.07
2023-02-25T13:14:16.455Z,6.35
2023-02-25T13:17:00.638Z,2.88
2023-02-25T13:19:45.694Z,5.43
2023-02-25T13:22:59.780Z,2.92
2023-02-25T13:25:47.798Z,6.68
2023-02-25T13:28:44.899Z,3.20
2023-02-25T13:31:21.010Z,3.38
2023-02-25T13:34:03.408Z,2.13
2023-02-25T13:36:44.465Z,3.95
2023-02-25T13:39:28.782Z,7.00
2023-02-25T13:42:16.832Z,4.95
2023-02-25T13:45:13.516Z,3.40
2023-02-25T13:47:58.570Z,4.70
2023-02-25T13:50:32.846Z,9.05
2023-02-25T13:53:05.859Z,6.97
2023-02-25T13:56:07.166Z,5.35
2023-02-25T13:58:43.582Z,6.63
2023-02-25T14:01:31.548Z,4.22
2023-02-25T14:04:41.068Z,3.95
2023-02-25T14:07:21.933Z,7.43
2023-02-25T14:10:12.283Z,6.90
2023-02-25T14:13:00.335Z,4.97
2023-02-25T14:15:47.446Z,4.22
2023-02-25T14:18:44.362Z,6.00
2023-02-25T14:21:43.349Z,10.18
2023-02-25T14:24:31.740Z,11.10
2023-02-25T14:27:20.761Z,7.55
2023-02-25T14:30:02.665Z,10.48
2023-02-25T14:33:05.186Z,8.68
2023-02-25T14:35:46.096Z,8.63
2023-02-25T14:38:29.380Z,7.07
2023-02-25T14:41:27.308Z,8.30
2023-02-25T14:43:59.675Z,8.55
2023-02-25T14:46:40.296Z,9.98
2023-02-25T14:49:19.163Z,6.40
2023-02-25T14:52:28.769Z,12.68
2023-02-25T14:55:40.528Z,10.85
2023-02-25T14:58:32.462Z,6.28
2023-02-25T15:01:01.945Z,5.15
2023-02-25T15:03:51.859Z,11.52
2023-02-25T15:06:59.944Z,10.48
2023-02-25T15:09:59.433Z,12.18
2023-02-25T15:13:06.628Z,12.65
2023-02-25T15:15:59.894Z,17.00
2023-02-25T15:19:07.488Z,10.80
2023-02-25T15:21:42.353Z,14.73
2023-02-25T15:24:40.853Z,8.43
2023-02-25T15:27:35.360Z,9.25
2023-02-25T15:30:13.811Z,11.68
2023-02-25T15:32:59.107Z,11.90
2023-02-25T15:35:34.494Z,9.95
2023-02-25T15:38:00.790Z,11.77
2023-02-25T15:40:33.221Z,7.70
2023-02-25T15:43:14.761Z,8.90
2023-02-25T15:45:43.177Z,6.97
2023-02-25T15:48:09.434Z,7.13
2023-02-25T15:50:41.876Z,10.77
2023-02-25T15:53:21.027Z,13.55
2023-02-25T15:55:54.422Z,5.22
2023-02-25T15:58:23.865Z,8.38
2023-02-25T16:00:57.735Z,6.88
2023-02-25T16:03:36.250Z,3.22
2023-02-25T16:06:12.318Z,8.57
2023-02-25T16:08:44.253Z,8.35
2023-02-25T16:11:24.505Z,5.45
2023-02-25T16:13:53.089Z,8.67
2023-02-25T16:16:20.822Z,5.28
2023-02-25T16:18:50.418Z,9.27
2023-02-25T16:21:26.337Z,7.78
2023-02-25T16:23:54.345Z,7.63
2023-02-25T16:26:39.521Z,6.32
2023-02-25T16:29:16.584Z,11.23
2023-02-25T16:32:01.546Z,27.33
2023-02-25T16:34:31.100Z,12.77
2023-02-25T16:37:16.982Z,4.30
2023-02-25T16:39:43.770Z,22.83
2023-02-25T16:42:16.363Z,20.02
2023-02-25T16:44:46.603Z,20.58
2023-02-25T16:47:29.137Z,21.08
2023-02-25T16:49:58.191Z,21.90
2023-02-25T16:52:40.308Z,10.30
2023-02-25T16:55:12.836Z,9.35
2023-02-25T16:57:39.449Z,7.38
2023-02-25T17:00:06.089Z,8.23
2023-02-25T17:02:32.434Z,11.35
2023-02-25T17:04:58.775Z,7.18
2023-02-25T17:07:27.761Z,3.78
2023-02-25T17:09:59.492Z,8.73
2023-02-25T17:12:41.137Z,6.03
2023-02-25T17:15:16.248Z,10.25
2023-02-25T17:17:44.584Z,5.20
2023-02-25T17:20:23.346Z,4.75
2023-02-25T17:22:50.808Z,7.28
2023-02-25T17:25:18.361Z,4.75
2023-02-25T17:27:48.477Z,10.15
2023-02-25T17:30:52.423Z,4.93
2023-02-25T17:33:21.601Z,3.63
2023-02-25T17:35:51.100Z,4.53
2023-02-25T17:38:22.195Z,3.80
2023-02-25T17:40:50.276Z,2.35
2023-02-25T17:43:32.525Z,4.88
2023-02-25T17:46:03.222Z,3.97
2023-02-25T17:48:40.958Z,3.50
2023-02-25T17:51:08.214Z,5.57
2023-02-25T17:53:43.685Z,4.95
2023-02-25T17:56:27.318Z,5.72
2023-02-25T17:59:00.080Z,5.85
2023-02-25T18:01:43.994Z,5.97
2023-02-25T18:04:40.016Z,5.00
2023-02-25T18:07:29.702Z,6.93
2023-02-25T18:09:57.050Z,51.08
2023-02-25T18:12:33.081Z,42.90
2023-02-25T18:15:02.499Z,10.73
2023-02-25T18:17:33.364Z,10.65
2023-02-25T18:20:03.521Z,2.78
2023-02-25T18:22:35.281Z,7.40
2023-02-25T18:25:06.901Z,4.07
2023-02-25T18:27:37.434Z,5.03
2023-02-25T18:30:19.102Z,4.05
2023-02-25T18:32:46.761Z,4.80
2023-02-25T18:35:13.434Z,4.80
2023-02-25T18:37:40.846Z,17.65
2023-02-25T18:40:10.519Z,30.83
2023-02-25T18:42:36.873Z,11.40
2023-02-25T18:45:13.991Z,22.00
2023-02-25T18:47:40.290Z,8.55
2023-02-25T18:50:07.292Z,8.60
2023-02-25T18:52:33.608Z,17.73
2023-02-25T18:55:00.156Z,29.67
2023-02-25T18:57:27.122Z,33.90
2023-02-25T18:59:53.496Z,21.75
2023-02-25T19:02:27.093Z,13.95
2023-02-25T19:04:55.300Z,9.43
2023-02-25T19:07:25.058Z,9.85
2023-02-25T19:09:51.513Z,114.05
2023-02-25T19:12:18.929Z,78.20
2023-02-25T19:14:46.550Z,47.45
2023-02-25T19:17:16.904Z,29.73
2023-02-25T19:19:46.476Z,17.55
2023-02-25T19:22:15.364Z,15.27
2023-02-25T19:24:43.412Z,7.63
2023-02-25T19:27:26.284Z,4.53
2023-02-25T19:29:55.552Z,6.65
2023-02-25T19:32:22.771Z,3.17
2023-02-25T19:34:49.445Z,5.90
2023-02-25T19:37:18.421Z,5.80
2023-02-25T19:39:44.747Z,5.85
2023-02-25T19:42:11.718Z,5.50
2023-02-25T19:44:38.102Z,9.43
2023-02-25T19:47:05.736Z,6.75
2023-02-25T19:49:33.191Z,6.55
2023-02-25T19:51:59.605Z,7.15
2023-02-25T19:54:26.157Z,8.88
2023-02-25T19:56:52.474Z,8.20
2023-02-25T19:59:18.836Z,9.65
2023-02-25T20:01:46.936Z,6.25
2023-02-25T20:04:13.252Z,5.63
2023-02-25T20:06:39.609Z,6.30
2023-02-25T20:09:08.231Z,9.48
2023-02-25T20:11:35.672Z,10.30
2023-02-25T20:14:03.898Z,6.65
2023-02-25T20:16:31.068Z,7.80
2023-02-25T20:18:57.533Z,11.68
2023-02-25T20:21:25.489Z,9.80
2023-02-25T20:23:52.924Z,9.10
2023-02-25T20:26:20.009Z,5.35
2023-02-25T20:28:46.812Z,8.13
2023-02-25T20:31:16.011Z,14.48
2023-02-25T20:33:42.974Z,8.05
2023-02-25T20:36:21.485Z,11.90
2023-02-25T20:39:16.939Z,18.52
2023-02-25T20:41:45.390Z,18.83
2023-02-25T20:44:12.300Z,18.92
2023-02-25T20:46:40.553Z,14.38
2023-02-25T20:49:10.632Z,20.20
2023-02-25T20:51:37.110Z,13.35
2023-02-25T20:54:04.010Z,13.13
2023-02-25T20:56:31.977Z,13.27
2023-02-25T20:58:58.332Z,18.92
2023-02-25T21:01:24.777Z,11.25
2023-02-25T21:03:51.152Z,27.05
2023-02-25T21:06:18.543Z,28.25
2023-02-25T21:08:44.916Z,32.22
2023-02-25T21:11:11.274Z,40.95
2023-02-25T21:13:37.602Z,107.80
2023-02-25T21:16:06.143Z,117.20
2023-02-25T21:18:33.467Z,85.50
2023-02-25T21:21:03.278Z,60.40
2023-02-25T21:23:30.921Z,52.80
2023-02-25T21:25:58.021Z,50.80
2023-02-25T21:28:24.562Z,88.75
2023-02-25T21:30:51.946Z,82.78
2023-02-25T21:33:18.447Z,138.07
2023-02-25T21:35:50.719Z,104.53
2023-02-25T21:38:17.105Z,78.63
2023-02-25T21:40:43.426Z,89.93
2023-02-25T21:43:09.709Z,58.05
2023-02-25T21:45:36.017Z,53.30
2023-02-25T21:48:02.314Z,40.42
2023-02-25T21:50:28.666Z,47.55
2023-02-25T21:52:55.007Z,58.15
2023-02-25T21:55:21.324Z,31.88
2023-02-25T21:57:47.708Z,31.08
2023-02-25T22:00:14.325Z,48.80
2023-02-25T22:02:40.755Z,34.90
2023-02-25T22:05:07.349Z,19.20
2023-02-25T22:07:33.650Z,25.98
2023-02-25T22:10:00.524Z,10.77
2023-02-25T22:12:27.034Z,13.60
2023-02-25T22:14:53.364Z,41.08
2023-02-25T22:17:19.721Z,35.85
2023-02-25T22:19:46.014Z,23.70
2023-02-25T22:22:14.101Z,12.10
2023-02-25T22:24:41.294Z,10.32
2023-02-25T22:27:07.627Z,7.85
2023-02-25T22:29:33.924Z,7.80
2023-02-25T22:32:00.398Z,8.88
2023-02-25T22:34:27.130Z,7.15
2023-02-25T22:36:54.278Z,6.85
2023-02-25T22:39:20.714Z,11.05
2023-02-25T22:41:47.084Z,9.93
2023-02-25T22:44:13.385Z,9.15
2023-02-25T22:46:39.831Z,16.90
2023-02-25T22:49:07.830Z,13.45
2023-02-25T22:51:37.340Z,14.00
2023-02-25T22:54:04.638Z,13.52
2023-02-25T22:56:30.936Z,16.45
2023-02-25T22:58:57.278Z,21.13
2023-02-25T23:01:24.876Z,13.73
2023-02-25T23:03:52.632Z,9.75
2023-02-25T23:06:22.148Z,7.90
2023-02-25T23:08:50.617Z,10.43
2023-02-25T23:11:22.807Z,11.70
2023-02-25T23:13:52.339Z,10.55
2023-02-25T23:16:22.038Z,9.50
2023-02-25T23:18:48.947Z,6.68
2023-02-25T23:21:18.964Z,9.35
2023-02-25T23:23:55.401Z,6.57
2023-02-25T23:26:25.230Z,7.78
2023-02-25T23:28:59.979Z,11.15
2023-02-25T23:31:32.145Z,9.35
2023-02-25T23:34:01.503Z,13.13
2023-02-25T23:36:28.955Z,11.65
2023-02-25T23:39:00.323Z,12.77
2023-02-25T23:41:27.821Z,8.80
2023-02-25T23:43:56.346Z,46.55
2023-02-25T23:46:26.090Z,49.33
2023-02-25T23:48:57.487Z,54.95
2023-02-25T23:53:54.534Z,35.95
2023-02-25T23:56:21.358Z,43.53
2023-02-25T23:58:49.984Z,45.50
